Lawson, Missouri
Current Conditions -  °F | °C
As of 12:15 PM on Monday 24 Nov 2014 (Local Time) from KGPH Reporting Station
Overcast Overcast  
Wind Chill: 26°   Ceiling: 3000
Heat Index: 36°   Visibility: 10mi
Dew Point: 27°   Wind: 15mph
Humidity: 70%   Direction: 300°WNW
Pressure: 29.77"   Gusts: 21mph
Location:  39.44°N, 94.2°W
Report Text: KGPH 241815Z AUTO 30013G18KT 10SM BKN030 OVC038 02/M03 A2977 RMK AO2
Loading
Personal Weather Stations






























Interactive Weather Map New forecast layout! Learn more

10-Day Weather Forecast

Advertisements
Track Severe Weather on mobile